Latest Weather Observations for Ulladulla

IDN60901

Issued at 11:41 am EST Wednesday 22 April 2015 (issued every 10 minutes, with the page automatically refreshed every 10 minutes)

About weather observations | Map of Canberra area stations | Latest observations for Canberra area | Other Formats
Station Details ID: 069138 Name: ULLADULLA AWS Lat: -35.36 Lon: 150.48 Height: 35.7 m
Data from the previous 72 hours. | See also: Recent months at Ulladulla
Date/Time
EST
Tmp

°C
App
Tmp
°C
Dew
Point
°C
Rel
Hum
%
Delta-T

°C
Wind Press
QNH
hPa
Press
MSL
hPa
Rain
since
9 am
mm
Dir
 
Spd
km/h
Gust
km/h
Spd
kts
Gust
kts
22/11:30am 15.8 11.8 15.2 96 0.3 SSW 30 46 16 25 1015.7 1015.6 3.2
22/11:00am 14.5 10.6 14.5 100 0.0 SSW 28 46 15 25 1016.4 1016.3 3.2
22/10:50am 14.5 10.2 14.5 100 0.0 SSW 30 50 16 27 1016.5 1016.4 3.2
22/10:30am 14.6 9.8 14.6 100 0.0 SSW 33 50 18 27 1016.3 1016.2 3.0
22/10:24am 14.5 10.2 14.5 100 0.0 SSW 30 50 16 27 1016.4 1016.3 2.4
22/10:00am 14.5 9.9 14.5 100 0.0 SSW 32 48 17 26 1016.4 1016.3 0.4
22/09:53am 14.4 10.1 14.4 100 0.0 SW 30 48 16 26 1016.5 1016.4 0.2
22/09:30am 14.7 10.1 14.7 100 0.0 SSW 32 43 17 23 1016.6 1016.5 0.2
22/09:00am 14.2 9.5 14.2 100 0.0 SSW 32 46 17 25 1016.9 1016.8 31.6
22/08:30am 14.1 9.3 14.1 100 0.0 SSW 32 48 17 26 1017.0 1016.9 31.0
22/08:07am 14.0 10.0 14.0 100 0.0 SSW 28 48 15 26 1017.2 1017.1 30.4
22/08:00am 13.7 9.6 13.7 100 0.0 SW 28 41 15 22 1017.3 1017.2 30.0
22/07:30am 14.0 10.7 14.0 100 0.0 SSW 24 39 13 21 1017.3 1017.2 27.0
22/07:00am 14.0 10.3 14.0 100 0.0 SSW 26 41 14 22 1017.3 1017.2 23.6
22/06:34am 15.6 11.7 15.6 100 0.0 SSW 30 61 16 33 1017.2 1017.1 21.2
22/06:30am 15.0 9.6 15.0 100 0.0 SSW 37 65 20 35 1017.4 1017.3 21.2
22/06:27am 15.4 8.4 15.4 100 0.0 SSW 46 76 25 41 1017.3 1017.2 21.0
22/06:00am 15.9 7.2 15.9 100 0.0 S 56 76 30 41 1016.7 1016.6 20.2
22/05:30am 15.6 5.9 15.6 100 0.0 S 61 80 33 43 1016.5 1016.4 19.2
22/05:00am 15.7 8.1 15.7 100 0.0 S 50 72 27 39 1016.6 1016.5 18.2
22/04:32am 15.6 6.8 15.6 100 0.0 S 56 74 30 40 1016.7 1016.6 16.0
22/04:30am 15.6 6.8 15.6 100 0.0 S 56 74 30 40 1016.7 1016.6 15.8
22/04:12am 15.7 5.5 15.5 99 0.1 S 63 83 34 45 1016.8 1016.7 14.8
22/04:00am 15.7 5.2 15.5 99 0.1 S 65 80 35 43 1016.7 1016.6 14.6
22/03:33am 15.4 5.6 15.4 100 0.0 S 61 80 33 43 1016.8 1016.7 14.6
22/03:30am 15.5 5.3 15.5 100 0.0 S 63 80 34 43 1016.8 1016.7 14.4
22/03:12am 15.1 5.6 15.1 100 0.0 S 59 82 32 44 1017.0 1016.9 14.0
22/03:00am 15.2 6.3 15.2 100 0.0 S 56 72 30 39 1017.5 1017.4 13.4
22/02:46am 15.6 7.6 15.6 100 0.0 S 52 72 28 39 1017.8 1017.7 12.6
22/02:30am 15.4 6.5 15.4 100 0.0 S 56 74 30 40 1017.8 1017.7 10.8
22/02:00am 15.4 6.8 15.2 99 0.1 S 54 72 29 39 1018.3 1018.3 8.4
22/01:31am 15.3 5.3 14.8 97 0.3 S 61 80 33 43 1018.2 1018.2 7.2
22/01:30am 15.2 4.7 14.7 97 0.3 S 63 80 34 43 1018.1 1018.1 7.0
22/01:00am 15.3 5.1 14.3 94 0.6 S 61 83 33 45 1018.1 1018.1 6.0
22/12:31am 15.5 5.5 13.9 90 0.9 S 59 82 32 44 1018.2 1018.2 5.4
22/12:30am 15.7 5.9 14.4 92 0.7 S 59 76 32 41 1018.2 1018.2 5.4
22/12:01am 15.7 6.5 14.6 93 0.6 S 56 78 30 42 1018.7 1018.7 5.2
22/12:00am 15.7 6.5 14.6 93 0.6 S 56 74 30 40 1018.8 1018.8 5.2
 
Date/Time
EST
Tmp

°C
App
Tmp
°C
Dew
Point
°C
Rel
Hum
%
Delta-T

°C
Wind Press
QNH
hPa
Press
MSL
hPa
Rain
since
9 am
mm
Dir
 
Spd
km/h
Gust
km/h
Spd
kts
Gust
kts
21/11:30pm 16.4 7.6 13.5 83 1.6 S 52 72 28 39 1019.2 1019.2 4.8
21/11:00pm 15.9 6.4 12.5 80 1.9 S 54 76 29 41 1019.4 1019.4 4.6
21/10:30pm 15.8 6.5 13.1 84 1.5 S 54 76 29 41 1020.3 1020.3 4.0
21/10:00pm 16.1 6.3 12.8 81 1.8 S 56 76 30 41 1019.8 1019.8 4.0
21/09:30pm 15.7 6.5 13.5 87 1.2 S 54 78 29 42 1020.4 1020.4 3.8
21/09:07pm 15.7 6.4 13.2 85 1.4 S 54 72 29 39 1020.7 1020.7 2.8
21/09:00pm 15.5 6.6 13.2 86 1.3 S 52 70 28 38 1020.6 1020.6 2.6
21/08:30pm 15.7 6.8 13.0 84 1.5 S 52 72 28 39 1020.8 1020.8 2.0
21/08:00pm 16.3 5.7 10.8 70 2.9 S 57 83 31 45 1021.0 1021.0 1.6
21/07:30pm 16.8 6.6 11.5 71 2.9 S 56 80 30 43 1021.1 1021.1 1.4
21/07:00pm 17.2 6.0 11.2 68 3.2 S 61 87 33 47 1021.1 1021.1 1.4
21/06:30pm 17.1 6.5 12.0 72 2.8 S 59 80 32 43 1021.6 1021.6 1.4
21/06:00pm 17.6 7.5 11.6 68 3.3 S 56 74 30 40 1021.3 1021.3 1.4
21/05:30pm 17.0 7.7 10.6 66 3.4 S 50 78 27 42 1021.2 1021.2 1.4
21/05:00pm 17.4 7.7 10.5 64 3.7 S 52 76 28 41 1021.5 1021.5 1.4
21/04:32pm 17.4 8.1 10.5 64 3.7 S 50 74 27 40 1021.5 1021.5 1.4
21/04:30pm 17.4 8.1 10.5 64 3.7 S 50 65 27 35 1021.5 1021.5 1.4
21/04:00pm 17.2 8.4 11.0 67 3.3 S 48 74 26 40 1021.5 1021.5 1.4
21/03:30pm 17.0 7.3 10.4 65 3.5 S 52 74 28 40 1021.5 1021.5 1.4
21/03:07pm 16.0 7.3 10.1 68 3.1 S 46 65 25 35 1021.9 1021.9 1.4
21/03:00pm 15.8 6.5 10.6 71 2.7 S 50 67 27 36 1021.8 1021.8 1.4
21/02:34pm 16.3 7.3 10.2 67 3.2 S 48 67 26 36 1022.1 1022.1 1.2
21/02:30pm 16.7 7.1 9.6 63 3.7 S 50 67 27 36 1021.9 1021.9 1.2
21/02:00pm 15.0 6.3 11.4 79 1.9 S 48 69 26 37 1022.4 1022.4 1.0
21/01:30pm 15.6 7.3 11.4 76 2.3 SSE 46 69 25 37 1022.9 1022.9 0.8
21/01:00pm 16.9 8.8 10.1 64 3.6 SSE 43 61 23 33 1023.1 1023.1 0.4
21/12:30pm 17.2 8.4 10.8 66 3.4 S 48 69 26 37 1023.4 1023.4 0.4
21/12:00pm 16.9 7.6 10.7 67 3.3 S 50 70 27 38 1023.8 1023.8 0.4
21/11:33am 17.1 9.1 11.2 68 3.2 S 44 63 24 34 1024.2 1024.2 0.4
21/11:30am 16.9 8.9 11.2 69 3.1 S 44 63 24 34 1024.3 1024.3 0.4
21/11:00am 15.3 7.8 12.2 82 1.7 SSE 43 70 23 38 1025.1 1025.1 0.4
21/10:30am 15.8 7.9 10.8 72 2.7 SSE 43 65 23 35 1025.0 1025.0 0.4
21/10:02am 15.1 9.0 11.7 80 1.8 SSE 35 54 19 29 1026.0 1025.9 0.4
21/10:00am 15.1 8.2 11.5 79 1.9 SSE 39 54 21 29 1026.1 1026.0 0.4
21/09:54am 15.4 7.6 11.2 76 2.2 SSE 43 67 23 36 1026.0 1025.9 0.4
21/09:30am 16.1 8.1 12.5 79 2.0 S 46 65 25 35 1026.0 1025.9 0.0
21/09:00am 16.3 7.7 11.7 74 2.5 S 48 67 26 36 1025.6 1025.6 33.6
21/08:30am 15.5 7.9 12.4 82 1.7 S 44 63 24 34 1026.1 1026.0 33.6
21/08:00am 15.7 7.9 11.7 77 2.2 S 44 65 24 35 1025.7 1025.7 33.6
21/07:32am 15.1 7.4 11.5 79 1.9 SSE 43 65 23 35 1025.4 1025.4 33.6
21/07:30am 15.1 7.5 12.4 84 1.5 SSE 44 65 24 35 1025.3 1025.3 33.6
21/07:26am 14.8 5.8 11.6 81 1.7 S 50 65 27 35 1025.3 1025.3 33.4
21/07:10am 16.0 7.1 12.0 77 2.2 S 50 69 27 37 1025.1 1025.1 33.4
21/07:02am 15.4 9.1 12.3 82 1.7 SSE 37 57 20 31 1025.3 1025.3 33.4
21/07:00am 14.9 8.8 11.9 82 1.6 SSE 35 50 19 27 1025.4 1025.4 33.4
21/06:38am 16.0 7.1 12.0 77 2.2 S 50 69 27 37 1025.4 1025.4 33.2
21/06:30am 15.9 7.6 12.6 81 1.8 S 48 65 26 35 1025.0 1025.0 33.2
21/06:06am 16.2 9.9 11.2 72 2.7 SSE 35 54 19 29 1025.3 1025.3 33.2
21/06:00am 16.0 10.1 11.2 73 2.6 SSE 33 52 18 28 1025.4 1025.4 33.2
21/05:35am 16.4 8.7 10.0 66 3.4 SSE 41 61 22 33 1025.1 1025.1 33.2
21/05:30am 16.4 8.9 10.9 70 2.9 SSE 41 59 22 32 1025.2 1025.2 33.2
21/05:08am 16.4 8.5 11.6 73 2.6 S 44 63 24 34 1025.1 1025.1 33.2
21/05:00am 16.6 8.4 11.7 73 2.7 SSE 46 61 25 33 1025.0 1025.0 33.2
21/04:31am 17.0 10.5 10.4 65 3.5 SSE 35 54 19 29 1024.9 1024.9 33.2
21/04:30am 16.9 9.9 9.8 63 3.7 SSE 37 54 20 29 1024.9 1024.9 33.2
21/04:00am 17.1 9.7 10.0 63 3.7 SSE 39 57 21 31 1024.9 1024.9 33.2
21/03:30am 17.1 10.2 10.2 64 3.7 SSE 37 56 20 30 1025.0 1025.0 33.2
21/03:29am 17.1 10.1 10.0 63 3.8 SSE 37 56 20 30 1024.9 1024.9 33.2
21/03:00am 17.1 9.5 9.0 59 4.2 SSE 39 56 21 30 1025.1 1025.1 33.2
21/02:40am 17.0 8.8 8.4 57 4.4 SSE 41 59 22 32 1025.3 1025.3 33.2
21/02:30am 17.1 8.7 9.0 59 4.2 SSE 43 57 23 31 1025.3 1025.3 33.2
21/02:00am 16.8 10.1 10.9 68 3.1 SSE 37 56 20 30 1025.5 1025.5 33.2
21/01:52am 17.1 9.0 10.0 63 3.8 SSE 43 61 23 33 1025.7 1025.7 33.2
21/01:30am 16.8 8.7 10.0 64 3.6 SSE 43 61 23 33 1026.1 1026.0 33.2
21/01:00am 16.2 7.5 11.2 72 2.7 S 48 67 26 36 1026.2 1026.1 33.2
21/12:30am 16.6 8.4 11.7 73 2.7 S 46 69 25 37 1026.2 1026.1 33.2
21/12:00am 15.7 7.4 11.3 75 2.4 S 46 65 25 35 1026.4 1026.3 33.2
 
Date/Time
EST
Tmp

°C
App
Tmp
°C
Dew
Point
°C
Rel
Hum
%
Delta-T

°C
Wind Press
QNH
hPa
Press
MSL
hPa
Rain
since
9 am
mm
Dir
 
Spd
km/h
Gust
km/h
Spd
kts
Gust
kts
20/11:30pm 16.0 8.4 12.4 79 2.0 S 44 65 24 35 1026.8 1026.7 33.2
20/11:00pm 15.1 7.0 12.2 83 1.6 S 46 69 25 37 1027.1 1027.0 32.0
20/10:30pm 14.6 6.2 12.3 86 1.3 S 48 67 26 36 1027.6 1027.5 31.6
20/10:14pm 15.2 7.4 13.1 87 1.2 S 46 65 25 35 1027.8 1027.7 31.4
20/10:00pm 15.7 6.8 13.2 85 1.4 S 52 70 28 38 1027.8 1027.7 31.4
20/09:30pm 15.1 7.1 12.4 84 1.5 S 46 67 25 36 1027.6 1027.5 30.0
20/09:02pm 17.2 8.7 12.1 72 2.8 S 48 69 26 37 1027.4 1027.3 29.4
20/09:00pm 16.9 7.7 11.0 68 3.2 S 50 69 27 37 1027.3 1027.2 29.4
20/08:30pm 17.2 8.8 11.2 68 3.2 SSE 46 67 25 36 1027.2 1027.1 29.4
20/08:00pm 17.0 7.9 11.3 69 3.1 SSE 50 72 27 39 1027.1 1027.0 29.4
20/07:30pm 17.2 8.8 11.2 68 3.2 SSE 46 69 25 37 1027.0 1026.9 29.4
20/07:00pm 17.0 7.5 13.7 81 1.9 S 56 74 30 40 1027.0 1026.9 29.4
20/06:30pm 16.5 6.4 12.3 76 2.3 S 57 82 31 44 1027.0 1026.9 29.4
20/06:00pm 16.5 8.0 11.9 74 2.5 S 48 69 26 37 1026.9 1026.8 29.4
20/05:31pm 14.8 6.1 11.2 79 1.9 S 48 67 26 36 1027.1 1027.0 29.4
20/05:30pm 14.9 6.4 11.9 82 1.6 SSE 48 65 26 35 1027.2 1027.1 29.4
20/05:00pm 14.6 5.1 12.5 87 1.1 S 54 76 29 41 1027.1 1027.0 29.2
20/04:31pm 14.9 6.8 14.4 97 0.3 S 50 70 27 38 1027.2 1027.1 28.6
20/04:30pm 14.9 6.8 14.3 96 0.3 S 50 67 27 36 1027.2 1027.1 28.6
20/04:00pm 14.7 6.1 13.9 95 0.4 S 52 74 28 40 1026.8 1026.7 27.4
20/03:30pm 14.7 5.3 12.6 87 1.2 S 54 87 29 47 1026.3 1026.2 26.6
20/03:00pm 14.8 5.4 11.6 81 1.7 S 52 76 28 41 1026.1 1026.0 25.4
20/02:30pm 15.8 4.7 11.6 76 2.3 S 61 85 33 46 1025.6 1025.6 24.6
20/02:00pm 16.3 6.3 12.1 76 2.3 S 56 76 30 41 1026.1 1026.0 24.2
20/01:34pm 16.6 4.1 10.7 68 3.2 S 67 87 36 47 1025.7 1025.7 24.2
20/01:30pm 16.6 4.2 10.9 69 3.1 S 67 83 36 45 1025.7 1025.7 24.2
20/01:00pm 16.1 4.3 11.9 76 2.3 S 65 85 35 46 1025.5 1025.5 24.2
20/12:30pm 16.4 4.4 11.1 71 2.8 S 65 87 35 47 1026.2 1026.1 24.2
20/12:00pm 15.9 5.9 12.8 82 1.7 S 57 78 31 42 1026.7 1026.6 24.2
20/11:30am 15.6 6.2 12.7 83 1.6 S 54 76 29 41 1026.9 1026.8 23.8
20/11:01am 15.4 7.2 14.1 92 0.7 S 50 70 27 38 1027.6 1027.5 23.4
20/11:00am 15.5 7.4 14.4 93 0.6 S 50 67 27 36 1027.6 1027.5 23.4
20/10:30am 13.4 7.4 13.4 100 0.0 SSW 37 65 20 35 1027.9 1027.8 21.6
20/10:12am 12.0 7.3 12.0 100 0.0 SSW 28 48 15 26 1028.5 1028.4 18.4
20/10:00am 12.5 7.2 12.5 100 0.0 SSW 32 52 17 28 1028.3 1028.2 16.2
20/09:53am 13.2 8.9 13.2 100 0.0 S 28 52 15 28 1028.9 1028.8 12.6
20/09:30am 11.8 7.0 11.8 100 0.0 SSW 28 46 15 25 1028.7 1028.6 2.4
20/09:00am 11.0 6.8 11.0 100 0.0 SW 24 35 13 19 1028.8 1028.7 29.6
20/08:30am 10.9 6.6 10.9 100 0.0 SW 24 35 13 19 1028.5 1028.4 26.4
20/08:02am 11.7 6.9 11.7 100 0.0 SSW 28 48 15 26 1028.1 1028.0 23.6
20/08:00am 11.6 6.4 11.6 100 0.0 SSW 30 44 16 24 1028.2 1028.1 23.4
20/07:30am 10.8 6.8 10.3 97 0.3 SW 22 41 12 22 1027.7 1027.6 16.0
20/07:00am 11.2 6.5 10.6 96 0.3 SW 26 41 14 22 1027.5 1027.4 12.4
20/06:36am 12.1 7.4 11.9 99 0.1 SSW 28 57 15 31 1027.3 1027.2 12.0
20/06:30am 11.1 6.4 10.5 96 0.3 SSW 26 39 14 21 1027.1 1027.0 11.6
20/06:06am 12.0 7.2 11.5 97 0.3 SSW 28 52 15 28 1026.8 1026.7 11.0
20/06:00am 11.2 6.4 10.3 94 0.5 SSW 26 41 14 22 1026.9 1026.8 10.8
20/05:39am 11.3 6.2 10.5 95 0.4 SSW 28 48 15 26 1026.5 1026.4 10.2
20/05:30am 11.0 5.3 9.8 92 0.6 SSW 30 48 16 26 1026.3 1026.2 9.4
20/05:00am 10.5 4.5 8.6 88 0.9 SW 30 44 16 24 1026.2 1026.1 8.4
20/04:30am 10.3 4.7 8.7 90 0.8 SW 28 44 15 24 1026.3 1026.2 8.2
20/04:06am 10.6 4.6 8.7 88 0.9 SW 30 50 16 27 1026.3 1026.2 7.6
20/04:00am 10.7 4.2 8.3 85 1.2 SW 32 48 17 26 1026.1 1026.0 7.6
20/03:30am 10.7 5.2 9.0 89 0.8 SSW 28 43 15 23 1026.5 1026.4 7.4
20/03:00am 11.3 6.2 7.8 79 1.7 SW 24 37 13 20 1026.6 1026.5 6.8
20/02:30am 11.0 5.9 7.7 80 1.6 SW 24 39 13 21 1027.1 1027.0 6.8
20/02:00am 11.1 5.9 8.7 85 1.2 SW 26 43 14 23 1026.9 1026.8 6.8
20/01:30am 11.0 5.8 7.1 77 1.9 SW 24 37 13 20 1026.9 1026.8 6.6
20/01:00am 10.8 5.4 7.9 82 1.4 SW 26 41 14 22 1026.9 1026.8 6.6
20/12:30am 10.6 6.0 8.0 84 1.3 SW 22 39 12 21 1027.2 1027.1 6.4
20/12:00am 11.4 5.6 8.1 80 1.6 SW 28 57 15 31 1027.3 1027.2 5.6
 
Date/Time
EST
Tmp

°C
App
Tmp
°C
Dew
Point
°C
Rel
Hum
%
Delta-T

°C
Wind Press
QNH
hPa
Press
MSL
hPa
Rain
since
9 am
mm
Dir
 
Spd
km/h
Gust
km/h
Spd
kts
Gust
kts
19/11:30pm 12.1 6.5 8.8 80 1.6 SSW 28 48 15 26 1027.2 1027.1 5.6
19/11:16pm 12.6 7.2 9.6 82 1.5 SSW 28 54 15 29 1027.3 1027.2 5.6
19/11:00pm 11.6 6.5 7.5 76 2.0 SW 24 37 13 20 1027.4 1027.3 5.6
19/10:30pm 11.7 6.3 8.0 78 1.8 SW 26 39 14 21 1027.2 1027.1 5.6
19/10:00pm 11.9 7.0 8.6 80 1.6 SW 24 37 13 20 1026.9 1026.8 5.4
19/09:30pm 11.4 7.0 9.0 85 1.2 SW 22 33 12 18 1027.0 1026.9 5.4
19/09:00pm 11.4 6.8 9.8 90 0.8 SW 24 35 13 19 1026.7 1026.6 5.2
19/08:30pm 11.6 8.0 9.9 89 0.9 SW 19 33 10 18 1026.5 1026.4 3.8
19/08:00pm 12.1 8.2 9.3 83 1.4 SW 20 32 11 17 1026.3 1026.2 2.8
19/07:30pm 12.2 8.7 8.7 79 1.7 SW 17 28 9 15 1025.5 1025.5 2.6
19/07:00pm 11.7 8.7 9.3 85 1.2 SW 15 20 8 11 1024.9 1024.9 2.6
19/06:30pm 11.5 9.4 9.8 89 0.9 W 11 15 6 8 1024.6 1024.6 2.6
19/06:00pm 11.4 9.3 9.7 89 0.9 WSW 11 17 6 9 1024.4 1024.4 2.6
19/05:30pm 11.4 8.8 9.5 88 1.0 SW 13 28 7 15 1024.3 1024.3 2.4
19/05:00pm 11.5 7.9 9.8 89 0.9 SW 19 28 10 15 1024.0 1024.0 2.0
19/04:30pm 11.6 8.3 9.5 87 1.1 SW 17 28 9 15 1023.6 1023.6 1.8
19/04:00pm 11.9 8.7 10.0 88 1.0 SW 17 28 9 15 1023.1 1023.1 1.6
19/03:30pm 12.3 9.3 10.5 89 0.9 SW 17 30 9 16 1022.9 1022.9 1.2
19/03:00pm 12.5 9.9 10.6 88 1.0 SW 15 24 8 13 1022.6 1022.6 0.8
19/02:30pm 13.6 11.5 11.0 84 1.4 WSW 13 22 7 12 1022.1 1022.1 0.2
19/02:00pm 14.6 10.7 8.8 68 2.9 SW 19 30 10 16 1021.6 1021.6 0.0
19/01:30pm 15.2 8.3 8.9 66 3.2 S 35 46 19 25 1021.2 1021.2 0.0
19/01:00pm 15.6 8.5 9.7 68 3.1 S 37 48 20 26 1020.9 1020.9 0.0
19/12:30pm 16.3 10.0 9.7 65 3.4 S 33 50 18 27 1020.6 1020.6 0.0
19/12:00pm 16.9 10.1 10.7 67 3.3 S 37 50 20 27 1020.5 1020.5 0.0

Latest Capital City Observations: Canberra | Sydney | Melbourne | Brisbane | Adelaide | Perth | Hobart | Darwin

Other Formats:

Comma delimited format used in spreadsheet applications
http://www.bom.gov.au/fwo/IDN60903/IDN60903.94938.axf

JavaScript Object Notation format (JSON) in row-major order
http://www.bom.gov.au/fwo/IDN60903/IDN60903.94938.json